Time;durP1;ratioP1;P1;durP2;ratioP2;P2;SDS_P1;SDS_P2;PMS_P1;PMS_P2;Temp;Humidity;BMP_temperature;BMP_pressure;BME280_temperature;BME280_humidity;BME280_pressure;Samples;Min_cycle;Max_cycle;Signal;HPM_P1;HPM_P2
2021/04/28 00:00:35;;;;;;;9.30;4.28;;;11.20;40.50;;;;;;5015911;28;20021;-91
2021/04/28 00:03:03;;;;;;;9.52;3.47;;;11.10;40.70;;;;;;5014243;28;20022;-92
2021/04/28 00:05:29;;;;;;;10.57;3.95;;;11.10;40.80;;;;;;5014961;28;20032;-90
2021/04/28 00:07:54;;;;;;;7.90;3.42;;;11.10;40.90;;;;;;5015421;28;20061;-91
2021/04/28 00:10:25;;;;;;;9.90;3.63;;;11.00;41.00;;;;;;5017134;28;20022;-92
2021/04/28 00:12:50;;;;;;;9.88;3.85;;;11.00;41.10;;;;;;5020608;28;20018;-93
2021/04/28 00:15:25;;;;;;;8.70;3.40;;;11.00;41.20;;;;;;5020268;28;20082;-90
2021/04/28 00:17:52;;;;;;;11.77;3.90;;;11.00;41.20;;;;;;5019536;28;20045;-92
2021/04/28 00:20:18;;;;;;;11.85;3.85;;;11.00;41.10;;;;;;5013963;28;20018;-91
2021/04/28 00:22:44;;;;;;;10.93;3.95;;;11.00;41.10;;;;;;5011468;28;20026;-90
2021/04/28 00:25:14;;;;;;;10.35;3.88;;;11.00;41.10;;;;;;5012282;28;20049;-91
2021/04/28 00:27:40;;;;;;;11.98;4.07;;;11.00;41.20;;;;;;5010917;28;20049;-90
2021/04/28 00:30:09;;;;;;;12.50;3.85;;;10.90;41.20;;;;;;5009432;28;20034;-91
2021/04/28 00:32:35;;;;;;;;;;;10.90;41.40;;;;;;5011342;28;20117;-90
2021/04/28 00:35:07;;;;;;;10.23;3.80;;;10.80;41.40;;;;;;5009329;28;19906;-89
2021/04/28 00:37:33;;;;;;;8.88;3.53;;;10.70;41.50;;;;;;5007392;28;20072;-90
2021/04/28 00:39:58;;;;;;;10.55;3.60;;;10.70;41.70;;;;;;5007551;28;20026;-90
2021/04/28 00:42:24;;;;;;;9.45;3.50;;;10.70;41.70;;;;;;5013141;28;20041;-88
2021/04/28 00:44:50;;;;;;;12.48;3.92;;;10.70;41.70;;;;;;5007593;28;20041;-89
2021/04/28 00:47:16;;;;;;;9.15;3.65;;;10.70;41.80;;;;;;5007951;28;20069;-89
2021/04/28 00:49:42;;;;;;;9.10;3.75;;;10.70;41.70;;;;;;5006402;28;20072;-90
2021/04/28 00:52:08;;;;;;;11.38;3.83;;;10.60;41.70;;;;;;5006995;28;20105;-90
2021/04/28 00:54:33;;;;;;;9.02;3.95;;;10.60;41.80;;;;;;5007883;28;20085;-90
2021/04/28 00:57:02;;;;;;;12.68;3.95;;;10.60;41.90;;;;;;5008008;28;20022;-91
2021/04/28 00:59:28;;;;;;;11.02;4.10;;;10.50;41.90;;;;;;5007648;28;20018;-90
2021/04/28 01:01:54;;;;;;;8.57;3.47;;;10.50;42.00;;;;;;5008553;28;20097;-90
2021/04/28 01:04:21;;;;;;;11.05;4.03;;;10.50;42.10;;;;;;5013147;28;20034;-91
2021/04/28 01:06:47;;;;;;;8.77;3.50;;;10.40;42.10;;;;;;5013512;28;20038;-91
2021/04/28 01:09:14;;;;;;;12.05;3.72;;;10.40;42.20;;;;;;5012086;28;20026;-91
2021/04/28 01:11:42;;;;;;;9.30;3.75;;;10.40;42.10;;;;;;5013997;28;20022;-89
2021/04/28 01:14:08;;;;;;;9.00;3.70;;;10.40;42.20;;;;;;5014462;28;20018;-91
2021/04/28 01:16:35;;;;;;;10.52;3.90;;;10.40;42.20;;;;;;5027762;28;20088;-89
2021/04/28 01:19:04;;;;;;;10.80;3.83;;;10.40;42.20;;;;;;5032565;28;20013;-90
2021/04/28 01:21:30;;;;;;;12.80;4.03;;;10.30;42.40;;;;;;5035047;28;20029;-89
2021/04/28 01:23:56;;;;;;;8.27;3.50;;;10.30;42.40;;;;;;5016704;28;20040;-91
2021/04/28 01:26:28;;;;;;;11.18;3.72;;;10.20;42.50;;;;;;5011401;28;20022;-90
2021/04/28 01:28:58;;;;;;;11.82;4.38;;;10.10;42.70;;;;;;5010778;28;20458;-91
2021/04/28 01:31:27;;;;;;;9.57;3.67;;;10.10;42.70;;;;;;5011162;28;20033;-90
2021/04/28 01:33:58;;;;;;;9.13;3.90;;;10.10;42.80;;;;;;5025375;28;20029;-90
2021/04/28 01:36:30;;;;;;;10.82;3.45;;;10.00;42.90;;;;;;5028839;28;20267;-90
2021/04/28 01:38:58;;;;;;;9.68;4.03;;;10.00;43.00;;;;;;5030670;28;20065;-90
2021/04/28 01:41:28;;;;;;;11.75;4.20;;;10.10;43.00;;;;;;5034807;28;20029;-89
2021/04/28 01:43:56;;;;;;;9.30;3.60;;;10.00;43.00;;;;;;5026308;28;20047;-89
2021/04/28 01:46:26;;;;;;;10.23;3.88;;;10.00;43.00;;;;;;5018542;28;20090;-89
2021/04/28 01:48:51;;;;;;;13.23;4.28;;;10.00;43.00;;;;;;5017187;28;20309;-90
2021/04/28 01:51:17;;;;;;;9.93;4.20;;;10.10;43.00;;;;;;5013706;28;20025;-91
2021/04/28 01:53:44;;;;;;;12.13;4.10;;;10.00;42.90;;;;;;5015168;28;20026;-91
2021/04/28 01:56:10;;;;;;;12.73;3.97;;;10.00;43.00;;;;;;5027895;28;20050;-91
2021/04/28 01:58:38;;;;;;;12.98;4.10;;;9.90;43.10;;;;;;5027228;28;20053;-89
2021/04/28 02:01:06;;;;;;;10.55;4.32;;;9.90;43.20;;;;;;5026949;28;20088;-89
2021/04/28 02:03:32;;;;;;;13.68;4.45;;;9.90;43.40;;;;;;5029919;28;20036;-90
2021/04/28 02:06:00;;;;;;;11.98;3.97;;;9.90;43.40;;;;;;5030653;28;20029;-90
2021/04/28 02:08:26;;;;;;;11.57;3.92;;;9.90;43.40;;;;;;5032265;28;20513;-90
2021/04/28 02:10:51;;;;;;;10.38;3.85;;;9.80;43.50;;;;;;5032303;28;20030;-90
2021/04/28 02:13:19;;;;;;;14.75;4.30;;;9.70;44.30;;;;;;5032310;28;20045;-92
2021/04/28 02:15:47;;;;;;;10.53;4.33;;;9.60;43.70;;;;;;5011863;28;20037;-92
2021/04/28 02:18:14;;;;;;;10.95;4.03;;;9.60;43.70;;;;;;5011305;28;20069;-90
2021/04/28 02:20:40;;;;;;;10.80;4.15;;;9.60;43.90;;;;;;5023389;28;20044;-89
2021/04/28 02:23:07;;;;;;;10.85;4.20;;;9.70;43.90;;;;;;5034259;28;20017;-90
2021/04/28 02:25:33;;;;;;;11.57;4.47;;;9.60;43.80;;;;;;5038500;28;20080;-88
2021/04/28 02:27:59;;;;;;;11.45;3.92;;;9.50;44.10;;;;;;5035136;28;20025;-89
2021/04/28 02:30:26;;;;;;;13.77;4.43;;;9.50;44.10;;;;;;5032911;28;20053;-90
2021/04/28 02:32:53;;;;;;;14.82;4.47;;;9.40;44.30;;;;;;5033070;28;20056;-89
2021/04/28 02:35:21;;;;;;;12.88;4.32;;;9.40;44.30;;;;;;5028860;28;20040;-92
2021/04/28 02:37:52;;;;;;;11.70;3.92;;;9.40;44.20;;;;;;5040154;28;20020;-90
2021/04/28 02:40:18;;;;;;;10.52;4.00;;;9.40;44.20;;;;;;5031014;28;20063;-92
2021/04/28 02:42:46;;;;;;;12.45;4.25;;;9.40;44.20;;;;;;5031030;28;20021;-89
2021/04/28 02:45:15;;;;;;;12.45;4.47;;;9.40;44.30;;;;;;5030367;28;20026;-89
2021/04/28 02:47:42;;;;;;;12.18;4.30;;;9.50;44.40;;;;;;5047634;28;20089;-90
2021/04/28 02:50:10;;;;;;;10.63;4.00;;;9.40;44.30;;;;;;5048341;28;20030;-90
2021/04/28 02:52:37;;;;;;;15.63;4.43;;;9.50;44.30;;;;;;5035131;28;20025;-87
2021/04/28 02:55:04;;;;;;;13.85;4.93;;;9.50;44.30;;;;;;5039296;28;20218;-89
2021/04/28 02:57:31;;;;;;;12.02;4.18;;;9.40;44.40;;;;;;5039554;28;20009;-89
2021/04/28 02:59:58;;;;;;;12.32;3.95;;;9.40;44.50;;;;;;5022035;28;20037;-90
2021/04/28 03:02:24;;;;;;;10.90;4.55;;;9.40;44.50;;;;;;5009173;28;20102;-89
2021/04/28 03:04:51;;;;;;;11.57;4.85;;;9.40;44.60;;;;;;5010911;28;20026;-88
2021/04/28 03:07:17;;;;;;;14.13;4.47;;;9.30;44.60;;;;;;5022378;28;20214;-91
2021/04/28 03:09:44;;;;;;;11.40;4.50;;;9.30;44.60;;;;;;5027092;28;20018;-92
2021/04/28 03:12:11;;;;;;;11.90;4.68;;;9.30;44.80;;;;;;5031559;28;20022;-88
2021/04/28 03:14:37;;;;;;;12.52;4.43;;;9.30;44.80;;;;;;5027760;28;20049;-90
2021/04/28 03:17:03;;;;;;;13.57;4.40;;;9.30;44.80;;;;;;5028537;28;20037;-90
2021/04/28 03:19:30;;;;;;;12.85;4.75;;;9.20;44.80;;;;;;5013103;28;20057;-89
2021/04/28 03:21:56;;;;;;;13.98;4.72;;;9.20;44.80;;;;;;5029085;28;20036;-90
2021/04/28 03:24:22;;;;;;;11.00;4.40;;;9.20;44.80;;;;;;5029408;28;20025;-91
2021/04/28 03:26:53;;;;;;;11.65;4.65;;;9.20;44.90;;;;;;5029691;28;20021;-90
2021/04/28 03:29:19;;;;;;;11.63;4.70;;;9.10;45.10;;;;;;5026862;28;20033;-89
2021/04/28 03:31:44;;;;;;;10.98;4.50;;;9.00;45.20;;;;;;5031073;28;20063;-90
2021/04/28 03:34:10;;;;;;;11.77;4.68;;;9.00;45.20;;;;;;5032261;28;20092;-89
2021/04/28 03:36:36;;;;;;;13.68;4.90;;;8.90;45.40;;;;;;5029923;28;20032;-91
2021/04/28 03:39:04;;;;;;;12.35;4.85;;;8.90;45.50;;;;;;5015862;28;20110;-90
2021/04/28 03:41:30;;;;;;;15.98;5.13;;;8.90;45.50;;;;;;5015552;28;20034;-90
2021/04/28 03:43:56;;;;;;;12.00;4.18;;;8.90;45.60;;;;;;5014416;28;20064;-90
2021/04/28 03:46:22;;;;;;;15.33;5.23;;;8.90;45.70;;;;;;5013701;28;20065;-90
2021/04/28 03:48:48;;;;;;;12.87;5.30;;;9.00;45.60;;;;;;5026701;28;20066;-90
2021/04/28 03:51:15;;;;;;;12.23;4.38;;;9.00;45.70;;;;;;5027583;28;20298;-90
2021/04/28 03:53:40;;;;;;;10.23;4.55;;;8.90;45.70;;;;;;5029555;28;20025;-89
2021/04/28 03:56:06;;;;;;;14.73;5.40;;;8.90;45.70;;;;;;5029183;28;20022;-89
2021/04/28 03:58:32;;;;;;;12.77;4.70;;;8.90;45.80;;;;;;5030379;28;20040;-90
2021/04/28 04:00:57;;;;;;;14.70;5.17;;;8.90;45.80;;;;;;5031679;28;20030;-91
2021/04/28 04:03:23;;;;;;;12.50;4.77;;;8.90;45.90;;;;;;5031165;28;20115;-90
2021/04/28 04:05:50;;;;;;;13.63;4.90;;;8.90;46.00;;;;;;5030708;28;20052;-89
2021/04/28 04:08:16;;;;;;;12.90;4.77;;;8.80;45.90;;;;;;5025735;28;20112;-90
2021/04/28 04:10:42;;;;;;;13.63;5.00;;;8.80;46.00;;;;;;5010319;28;20112;-90
2021/04/28 04:13:08;;;;;;;14.53;4.77;;;8.80;46.10;;;;;;5009293;28;20029;-88
2021/04/28 04:15:33;;;;;;;15.67;4.93;;;8.80;46.10;;;;;;5009740;28;20021;-91
2021/04/28 04:17:59;;;;;;;13.13;5.47;;;8.70;46.10;;;;;;5011385;28;20093;-90
2021/04/28 04:20:24;;;;;;;14.57;4.57;;;8.70;46.20;;;;;;5018884;28;20563;-90
2021/04/28 04:22:50;;;;;;;13.20;5.07;;;8.70;46.30;;;;;;5009035;28;20022;-91
2021/04/28 04:25:16;;;;;;;15.37;5.23;;;8.60;46.50;;;;;;5009457;28;20025;-91
2021/04/28 04:27:42;;;;;;;15.30;5.10;;;8.60;46.50;;;;;;5027769;28;20021;-90
2021/04/28 04:30:08;;;;;;;12.50;4.93;;;8.70;46.60;;;;;;5025328;28;20046;-89
2021/04/28 04:32:34;;;;;;;12.03;5.30;;;8.60;46.50;;;;;;5028130;28;20030;-89
2021/04/28 04:35:00;;;;;;;10.87;4.70;;;8.60;46.60;;;;;;5028194;28;20018;-89
2021/04/28 04:37:25;;;;;;;14.73;5.37;;;8.50;46.70;;;;;;5027721;28;20565;-90
2021/04/28 04:39:51;;;;;;;14.17;4.83;;;8.60;46.70;;;;;;5031440;28;20025;-90
2021/04/28 04:42:16;;;;;;;14.93;5.17;;;8.60;46.90;;;;;;5030689;28;20025;-90
2021/04/28 04:44:42;;;;;;;14.40;5.23;;;8.60;46.80;;;;;;5030330;28;20061;-89
2021/04/28 04:47:07;;;;;;;12.67;5.30;;;8.60;46.80;;;;;;5024999;28;20609;-91
2021/04/28 04:49:34;;;;;;;14.13;5.83;;;8.60;46.90;;;;;;5018319;28;20033;-90
2021/04/28 04:52:00;;;;;;;13.67;4.73;;;8.60;46.90;;;;;;5017366;28;20053;-90
2021/04/28 04:54:25;;;;;;;11.70;4.93;;;8.60;47.00;;;;;;5025492;28;20386;-82
2021/04/28 04:56:51;;;;;;;14.63;5.10;;;8.60;47.10;;;;;;5016320;28;20075;-83
2021/04/28 04:59:16;;;;;;;17.73;5.63;;;8.60;47.10;;;;;;5016176;28;20085;-86
2021/04/28 05:01:42;;;;;;;13.00;4.97;;;8.50;47.10;;;;;;5033739;28;20391;-87
2021/04/28 05:04:07;;;;;;;13.47;5.03;;;8.50;47.30;;;;;;5014958;28;20072;-85
2021/04/28 05:06:33;;;;;;;17.70;5.10;;;8.50;47.30;;;;;;5019768;28;20269;-83
2021/04/28 05:08:59;;;;;;;13.23;5.00;;;8.50;47.30;;;;;;5022118;28;20171;-84
2021/04/28 05:11:25;;;;;;;13.43;4.73;;;8.50;47.50;;;;;;5005418;28;20064;-84
2021/04/28 05:13:51;;;;;;;13.40;4.60;;;8.40;47.50;;;;;;5021210;28;20081;-84
2021/04/28 05:16:16;;;;;;;14.43;5.23;;;8.40;47.70;;;;;;5002395;28;20026;-83
2021/04/28 05:18:42;;;;;;;12.90;4.47;;;8.40;47.70;;;;;;5003383;28;20030;-84
2021/04/28 05:21:07;;;;;;;15.00;4.80;;;8.40;47.90;;;;;;5037176;28;20037;-84
2021/04/28 05:23:33;;;;;;;14.77;4.60;;;8.50;47.70;;;;;;5023311;28;20057;-84
2021/04/28 05:25:59;;;;;;;14.73;4.50;;;8.40;47.70;;;;;;5023535;28;20033;-84
2021/04/28 05:28:24;;;;;;;11.93;4.63;;;8.50;47.80;;;;;;5024655;28;20113;-83
2021/04/28 05:30:50;;;;;;;13.07;4.77;;;8.50;47.70;;;;;;5034562;28;20072;-84
2021/04/28 05:33:16;;;;;;;12.60;4.67;;;8.50;47.70;;;;;;5014004;28;20021;-84
2021/04/28 05:35:41;;;;;;;15.17;4.90;;;8.60;47.70;;;;;;5026760;28;20042;-84
2021/04/28 05:38:07;;;;;;;12.43;4.40;;;8.50;47.80;;;;;;5030166;28;20034;-85
2021/04/28 05:40:32;;;;;;;13.97;4.50;;;8.60;47.80;;;;;;5033126;28;20029;-84
2021/04/28 05:42:58;;;;;;;14.23;4.93;;;8.60;47.80;;;;;;5026464;28;20041;-84
2021/04/28 05:45:24;;;;;;;16.47;4.37;;;8.60;47.70;;;;;;5020602;28;20029;-83
2021/04/28 05:47:50;;;;;;;11.97;4.30;;;8.60;47.80;;;;;;5015801;28;20130;-83
2021/04/28 05:50:17;;;;;;;14.10;4.53;;;8.60;47.80;;;;;;5019056;28;20040;-83
2021/04/28 05:52:43;;;;;;;11.50;4.53;;;8.60;47.90;;;;;;5006414;28;20033;-84
2021/04/28 05:55:10;;;;;;;15.53;4.53;;;8.60;47.80;;;;;;5019357;28;20026;-84
2021/04/28 05:57:36;;;;;;;13.10;4.50;;;8.70;47.80;;;;;;5020301;28;20030;-83
2021/04/28 06:00:08;;;;;;;18.63;4.97;;;8.80;47.80;;;;;;5020030;28;20033;-83
2021/04/28 06:02:34;;;;;;;15.10;4.77;;;8.80;48.10;;;;;;5022875;28;20079;-85
2021/04/28 06:04:59;;;;;;;11.60;4.47;;;8.80;47.90;;;;;;5040699;28;20041;-86
2021/04/28 06:07:25;;;;;;;14.83;4.97;;;8.80;47.80;;;;;;5017695;28;20042;-87
2021/04/28 06:09:54;;;;;;;17.20;4.57;;;8.80;47.80;;;;;;5016031;28;20018;-87
2021/04/28 06:12:19;;;;;;;14.50;4.28;;;8.90;47.70;;;;;;5010449;28;20041;-87
2021/04/28 06:14:45;;;;;;;11.43;4.20;;;9.00;47.60;;;;;;5003815;28;20025;-87
2021/04/28 06:17:12;;;;;;;13.37;4.23;;;9.00;47.60;;;;;;5021870;28;20113;-88
2021/04/28 06:19:37;;;;;;;11.43;4.60;;;9.00;47.60;;;;;;5018417;28;20026;-86
2021/04/28 06:22:03;;;;;;;15.20;4.82;;;9.00;47.70;;;;;;5016718;28;20064;-86
2021/04/28 06:24:29;;;;;;;10.37;4.00;;;9.00;47.70;;;;;;5002426;28;20078;-85
2021/04/28 06:26:55;;;;;;;12.83;4.97;;;9.10;47.60;;;;;;5036322;28;20670;-83
2021/04/28 06:29:25;;;;;;;11.95;4.70;;;9.20;47.60;;;;;;5034368;28;20044;-87
2021/04/28 06:31:51;;;;;;;10.97;4.17;;;9.20;47.50;;;;;;5016794;28;20284;-82
2021/04/28 06:34:17;;;;;;;14.85;4.72;;;9.30;47.50;;;;;;5034899;28;20095;-82
2021/04/28 06:36:42;;;;;;;15.13;5.00;;;9.40;47.40;;;;;;5017192;28;20097;-85
2021/04/28 06:39:08;;;;;;;14.07;4.30;;;9.60;47.90;;;;;;5017691;28;20029;-85
2021/04/28 06:41:34;;;;;;;12.27;4.55;;;9.80;46.90;;;;;;5012499;28;20034;-81
2021/04/28 06:43:59;;;;;;;10.95;4.82;;;9.80;46.70;;;;;;5028853;28;20159;-84
2021/04/28 06:46:26;;;;;;;12.85;4.75;;;9.90;46.50;;;;;;5012026;28;20065;-84
2021/04/28 06:48:52;;;;;;;13.50;4.40;;;10.00;46.40;;;;;;5016486;28;20065;-87
2021/04/28 06:51:17;;;;;;;12.55;4.47;;;10.20;45.90;;;;;;5013153;28;20048;-90
2021/04/28 06:53:43;;;;;;;17.60;4.40;;;10.30;45.70;;;;;;5017863;28;20045;-86
2021/04/28 06:56:09;;;;;;;11.05;4.28;;;10.40;45.60;;;;;;5015000;28;20430;-89
2021/04/28 06:58:39;;;;;;;12.32;4.40;;;10.50;45.50;;;;;;5015748;28;20029;-93
2021/04/28 07:01:12;;;;;;;13.55;4.57;;;10.50;45.50;;;;;;5023668;28;20061;-92
2021/04/28 07:03:38;;;;;;;15.43;4.60;;;10.60;45.60;;;;;;5019353;28;20033;-91
2021/04/28 07:06:06;;;;;;;11.10;4.38;;;10.70;45.60;;;;;;5019845;28;20032;-92
2021/04/28 07:08:31;;;;;;;11.57;4.15;;;10.80;45.40;;;;;;5023311;28;20033;-90
2021/04/28 07:10:57;;;;;;;12.32;4.85;;;10.90;45.40;;;;;;5020061;28;20075;-88
2021/04/28 07:13:23;;;;;;;14.73;4.80;;;11.10;45.20;;;;;;5018662;28;20388;-88
2021/04/28 07:15:48;;;;;;;13.43;4.95;;;11.20;45.10;;;;;;5015386;28;20030;-88
2021/04/28 07:18:14;;;;;;;13.90;4.57;;;11.30;44.90;;;;;;5010100;28;20387;-84
2021/04/28 07:20:40;;;;;;;13.77;4.82;;;11.40;44.70;;;;;;5006823;28;20034;-87
2021/04/28 07:23:06;;;;;;;14.75;4.97;;;11.50;44.70;;;;;;5000494;28;20037;-82
2021/04/28 07:25:31;;;;;;;13.90;5.00;;;11.50;44.70;;;;;;5013484;28;20387;-84
2021/04/28 07:27:58;;;;;;;16.73;4.80;;;11.60;44.70;;;;;;5009617;28;20033;-85
2021/04/28 07:30:24;;;;;;;13.90;5.00;;;11.60;44.40;;;;;;5012352;28;20084;-86
2021/04/28 07:32:49;;;;;;;12.98;5.22;;;11.70;44.40;;;;;;5013215;28;20447;-86
2021/04/28 07:35:18;;;;;;;16.00;5.07;;;11.80;44.40;;;;;;5013972;28;20041;-86
2021/04/28 07:37:44;;;;;;;13.45;4.50;;;11.90;44.20;;;;;;5015406;28;20168;-83
2021/04/28 07:40:11;;;;;;;13.02;4.82;;;12.00;44.00;;;;;;5021072;28;20477;-86
2021/04/28 07:42:37;;;;;;;13.82;5.10;;;12.10;43.80;;;;;;5018852;28;20483;-82
2021/04/28 07:45:05;;;;;;;13.52;5.18;;;12.20;43.50;;;;;;5036532;28;20096;-89
2021/04/28 07:47:30;;;;;;;14.70;5.13;;;12.20;43.40;;;;;;5016079;28;20427;-86
2021/04/28 07:49:56;;;;;;;12.27;5.25;;;12.30;43.10;;;;;;5012503;28;20053;-83
2021/04/28 07:52:21;;;;;;;15.43;5.53;;;12.40;43.00;;;;;;5013032;28;20091;-85
2021/04/28 07:54:47;;;;;;;12.40;4.88;;;12.50;42.80;;;;;;5014758;28;20104;-88
2021/04/28 07:57:14;;;;;;;17.05;5.20;;;12.50;42.80;;;;;;5012240;28;20057;-85
2021/04/28 07:59:40;;;;;;;16.42;5.47;;;12.60;42.80;;;;;;5003416;28;20025;-87
2021/04/28 08:02:05;;;;;;;14.07;5.40;;;12.70;42.80;;;;;;5005447;28;20034;-81
2021/04/28 08:04:31;;;;;;;12.82;4.82;;;12.70;42.70;;;;;;5014004;28;20144;-85
2021/04/28 08:06:57;;;;;;;18.67;6.05;;;12.80;42.80;;;;;;5033996;28;20425;-85
2021/04/28 08:09:22;;;;;;;16.30;5.20;;;12.80;42.80;;;;;;5029100;28;20033;-83
2021/04/28 08:11:48;;;;;;;15.10;5.15;;;12.90;42.80;;;;;;5013231;28;20030;-83
2021/04/28 08:14:13;;;;;;;57.80;6.68;;;12.90;42.80;;;;;;5012540;28;20089;-84
2021/04/28 08:16:39;;;;;;;14.70;4.78;;;13.00;42.90;;;;;;5026534;28;20073;-83
2021/04/28 08:19:05;;;;;;;14.60;4.95;;;13.10;42.70;;;;;;5031738;28;20141;-85
2021/04/28 08:21:31;;;;;;;16.58;5.20;;;13.20;42.50;;;;;;5030620;28;20530;-85
2021/04/28 08:23:57;;;;;;;36.38;6.43;;;13.20;42.50;;;;;;5045553;28;20134;-87
2021/04/28 08:26:23;;;;;;;14.40;5.20;;;13.20;42.50;;;;;;5039079;28;20486;-84
2021/04/28 08:28:49;;;;;;;17.00;5.43;;;13.20;42.60;;;;;;5016951;28;20021;-87
2021/04/28 08:31:19;;;;;;;14.75;5.75;;;13.30;42.70;;;;;;5014642;28;20026;-84
2021/04/28 08:33:45;;;;;;;13.85;5.38;;;13.30;42.60;;;;;;5021804;28;20069;-87
2021/04/28 08:36:11;;;;;;;13.98;5.05;;;13.50;42.50;;;;;;5035535;28;20048;-86
2021/04/28 08:38:38;;;;;;;12.82;5.03;;;13.60;42.30;;;;;;5014341;28;20438;-85
2021/04/28 08:41:09;;;;;;;14.75;5.15;;;13.60;42.20;;;;;;5002099;28;20033;-86
2021/04/28 08:43:35;;;;;;;14.60;5.60;;;13.60;42.00;;;;;;4998429;28;20107;-86
2021/04/28 08:46:01;;;;;;;13.13;5.47;;;13.70;41.80;;;;;;5011792;28;20506;-87
2021/04/28 08:48:32;;;;;;;17.42;5.50;;;13.70;41.80;;;;;;5016786;28;20037;-87
2021/04/28 08:50:59;;;;;;;15.00;5.43;;;13.80;41.70;;;;;;5031462;28;20061;-85
2021/04/28 08:53:28;;;;;;;14.02;5.68;;;13.90;41.60;;;;;;5015733;28;20036;-87
2021/04/28 08:55:55;;;;;;;14.05;5.72;;;13.90;41.50;;;;;;5016257;28;20151;-86
2021/04/28 08:58:22;;;;;;;18.45;6.57;;;14.00;41.30;;;;;;5015904;28;20227;-87
2021/04/28 09:00:48;;;;;;;16.83;6.25;;;14.20;41.10;;;;;;5009343;28;20053;-85
2021/04/28 09:03:16;;;;;;;15.82;5.80;;;14.20;40.70;;;;;;5004679;28;20056;-87
2021/04/28 09:05:44;;;;;;;17.15;6.32;;;14.20;40.50;;;;;;5016074;28;20475;-85
2021/04/28 09:08:11;;;;;;;17.25;6.20;;;14.30;40.40;;;;;;5016076;28;20499;-87
2021/04/28 09:10:39;;;;;;;14.18;6.13;;;14.40;40.50;;;;;;5016328;28;20464;-86
2021/04/28 09:13:07;;;;;;;18.10;6.43;;;14.40;40.40;;;;;;5011039;28;20101;-86
2021/04/28 09:15:37;;;;;;;15.52;6.32;;;14.50;40.30;;;;;;5017570;28;20030;-86
2021/04/28 09:18:05;;;;;;;16.60;6.35;;;14.50;40.30;;;;;;5016186;28;20033;-86
2021/04/28 09:20:36;;;;;;;15.60;6.35;;;14.60;40.30;;;;;;5005431;28;20029;-87
2021/04/28 09:23:08;;;;;;;15.10;6.40;;;14.60;40.60;;;;;;5032939;28;20033;-86
2021/04/28 09:25:40;;;;;;;17.77;6.15;;;14.70;40.50;;;;;;5039803;28;20048;-88
2021/04/28 09:28:29;;;;;;;16.38;6.82;;;14.80;40.50;;;;;;5001284;28;20088;-87
2021/04/28 09:31:24;;;;;;;16.48;6.20;;;14.90;40.40;;;;;;5005407;28;20379;-86
2021/04/28 09:33:55;;;;;;;14.45;6.15;;;14.90;40.20;;;;;;5008211;28;20144;-86
2021/04/28 09:36:27;;;;;;;15.07;6.53;;;15.00;40.50;;;;;;5019235;28;20032;-86
2021/04/28 09:39:02;;;;;;;18.95;6.70;;;15.10;40.40;;;;;;5037106;28;20021;-85
2021/04/28 09:41:38;;;;;;;18.75;6.70;;;15.10;40.50;;;;;;5017954;28;20479;-87
2021/04/28 09:44:30;;;;;;;15.18;7.05;;;15.20;40.10;;;;;;5018482;28;20037;-87
2021/04/28 09:47:05;;;;;;;17.05;7.45;;;15.30;40.60;;;;;;5008097;28;20034;-87
2021/04/28 09:49:52;;;;;;;14.90;6.68;;;15.30;40.20;;;;;;5015891;28;20046;-89
2021/04/28 09:52:39;;;;;;;17.05;7.00;;;15.40;40.60;;;;;;5016235;28;20034;-88
2021/04/28 09:55:14;;;;;;;20.23;7.25;;;15.50;40.50;;;;;;5011983;28;20041;-87
2021/04/28 09:57:45;;;;;;;15.27;6.30;;;15.50;40.40;;;;;;5018362;28;20021;-85
2021/04/28 10:00:15;;;;;;;17.20;7.63;;;15.60;40.20;;;;;;5014747;28;20120;-88
2021/04/28 10:02:43;;;;;;;18.55;6.80;;;15.70;40.00;;;;;;5014130;28;20335;-85
2021/04/28 10:05:24;;;;;;;22.70;7.85;;;15.70;40.10;;;;;;5014951;28;20036;-86
2021/04/28 10:07:52;;;;;;;15.23;7.20;;;15.80;40.20;;;;;;5014897;28;20488;-84
2021/04/28 10:10:20;;;;;;;17.80;7.18;;;15.90;40.10;;;;;;5019373;28;20097;-85
2021/04/28 10:12:45;;;;;;;18.13;7.25;;;15.90;40.10;;;;;;5015988;28;20026;-89
2021/04/28 10:15:12;;;;;;;19.05;7.75;;;16.00;39.60;;;;;;5017445;28;20577;-88
2021/04/28 10:17:39;;;;;;;17.10;7.32;;;16.00;40.10;;;;;;5016318;28;20018;-84
2021/04/28 10:20:08;;;;;;;20.63;8.27;;;16.10;39.90;;;;;;5036334;28;20030;-85
2021/04/28 10:22:34;;;;;;;17.20;7.55;;;16.10;39.60;;;;;;5017122;28;20037;-84
2021/04/28 10:25:05;;;;;;;19.45;7.63;;;16.10;40.00;;;;;;5021223;28;20033;-87
2021/04/28 10:27:31;;;;;;;16.70;7.38;;;16.20;39.80;;;;;;5021010;28;20030;-85
2021/04/28 10:29:56;;;;;;;19.08;7.10;;;16.30;39.80;;;;;;5018387;28;20065;-84
2021/04/28 10:32:23;;;;;;;18.05;7.72;;;16.40;39.60;;;;;;5016850;28;20025;-84
2021/04/28 10:35:00;;;;;;;19.88;7.75;;;16.40;39.50;;;;;;5012190;28;20026;-83
2021/04/28 10:37:31;;;;;;;16.38;7.60;;;16.50;39.50;;;;;;5014981;28;20379;-80
2021/04/28 10:39:57;;;;;;;16.83;7.82;;;16.60;39.40;;;;;;5014815;28;20119;-80
2021/04/28 10:42:33;;;;;;;16.98;7.22;;;16.70;39.60;;;;;;5013550;28;20096;-80
2021/04/28 10:45:11;;;;;;;19.10;8.38;;;16.80;39.40;;;;;;5012488;28;20320;-83
2021/04/28 10:47:44;;;;;;;18.92;8.20;;;16.90;38.90;;;;;;5033078;28;20502;-80
2021/04/28 10:50:21;;;;;;;17.30;7.82;;;17.00;39.10;;;;;;5014331;28;20381;-83
2021/04/28 10:52:53;;;;;;;19.85;7.60;;;17.00;38.50;;;;;;5002202;28;20045;-80
2021/04/28 10:55:42;;;;;;;17.20;8.60;;;17.10;39.00;;;;;;4999237;28;20018;-82
2021/04/28 10:58:38;;;;;;;19.00;7.88;;;17.20;38.90;;;;;;5012200;28;20112;-81
2021/04/28 11:01:07;;;;;;;21.25;8.07;;;17.40;38.80;;;;;;5015497;28;20068;-81
2021/04/28 11:03:37;;;;;;;21.77;9.20;;;17.40;38.80;;;;;;5011951;28;20073;-81
2021/04/28 11:06:20;;;;;;;19.35;8.27;;;17.50;38.60;;;;;;5012104;28;20084;-83
2021/04/28 11:08:49;;;;;;;16.75;7.85;;;17.60;38.90;;;;;;5015330;28;20036;-85
2021/04/28 11:11:30;;;;;;;20.92;8.43;;;17.70;38.40;;;;;;5025023;28;20100;-83
2021/04/28 11:14:08;;;;;;;19.38;8.77;;;17.70;38.20;;;;;;4998663;28;20380;-85
2021/04/28 11:16:41;;;;;;;19.60;8.60;;;17.70;38.20;;;;;;5024998;28;20072;-83
2021/04/28 11:19:27;;;;;;;18.45;8.57;;;17.70;38.20;;;;;;5016750;28;20059;-82
2021/04/28 11:22:08;;;;;;;17.65;8.45;;;17.80;38.40;;;;;;5012450;28;20377;-81
2021/04/28 11:25:08;;;;;;;20.48;8.25;;;17.90;38.30;;;;;;5011431;28;20535;-82
2021/04/28 11:27:53;;;;;;;18.17;8.90;;;18.00;38.30;;;;;;5013801;28;20034;-82
2021/04/28 11:30:18;;;;;;;21.05;8.73;;;18.00;38.20;;;;;;5014917;28;20025;-82
2021/04/28 11:33:15;;;;;;;16.30;8.32;;;18.10;38.20;;;;;;5012769;28;20041;-83
2021/04/28 11:35:53;;;;;;;18.35;8.65;;;18.20;38.20;;;;;;4999364;28;20026;-83
2021/04/28 11:38:24;;;;;;;23.42;9.27;;;18.30;37.80;;;;;;4997659;28;20431;-83
2021/04/28 11:41:00;;;;;;;22.10;8.75;;;18.40;37.70;;;;;;5017418;28;20026;-83
2021/04/28 11:43:27;;;;;;;21.08;8.90;;;18.50;37.70;;;;;;5010091;28;20092;-83
2021/04/28 11:45:59;;;;;;;18.15;8.85;;;18.50;37.50;;;;;;5007373;28;20030;-83
2021/04/28 11:48:25;;;;;;;18.85;9.00;;;18.60;37.50;;;;;;4998294;28;20049;-82
2021/04/28 11:51:03;;;;;;;18.10;8.65;;;18.60;37.70;;;;;;5002109;28;20080;-83
2021/04/28 11:53:30;;;;;;;21.10;8.80;;;18.80;36.90;;;;;;5017583;28;20037;-83
2021/04/28 11:55:56;;;;;;;20.40;9.23;;;18.90;37.50;;;;;;5020146;28;20029;-84
2021/04/28 11:58:28;;;;;;;19.38;8.85;;;19.10;37.10;;;;;;5020785;28;20029;-85
2021/04/28 12:01:08;;;;;;;18.17;9.15;;;19.10;37.30;;;;;;5026058;28;20049;-84
2021/04/28 12:03:53;;;;;;;20.42;8.95;;;19.20;36.90;;;;;;5031377;28;20594;-83
2021/04/28 12:06:28;;;;;;;18.10;9.15;;;19.30;36.60;;;;;;5023113;28;20101;-84
2021/04/28 12:09:18;;;;;;;19.70;8.80;;;19.40;36.80;;;;;;5026966;28;20029;-84
2021/04/28 12:11:46;;;;;;;18.65;9.13;;;19.60;36.60;;;;;;5032324;28;20030;-87
2021/04/28 12:14:13;;;;;;;19.90;9.93;;;19.70;36.10;;;;;;5013427;28;20030;-85
2021/04/28 12:16:53;;;;;;;26.08;9.43;;;19.80;36.00;;;;;;5014964;28;20768;-86
2021/04/28 12:19:19;;;;;;;26.00;9.82;;;19.90;36.30;;;;;;5015358;28;20085;-86
2021/04/28 12:22:03;;;;;;;20.02;10.20;;;19.90;36.20;;;;;;5014699;28;20048;-89
2021/04/28 12:24:31;;;;;;;23.33;9.27;;;20.00;36.30;;;;;;5013145;28;20326;-86
2021/04/28 12:27:08;;;;;;;17.05;8.73;;;20.00;36.10;;;;;;4993141;28;20080;-83
2021/04/28 12:29:59;;;;;;;21.98;10.20;;;20.10;35.80;;;;;;5011563;28;20022;-84
2021/04/28 12:32:32;;;;;;;19.13;9.10;;;20.10;35.90;;;;;;5003196;28;20057;-84
2021/04/28 12:35:20;;;;;;;18.95;9.90;;;20.30;35.70;;;;;;5014487;28;20033;-84
2021/04/28 12:38:11;;;;;;;18.48;9.50;;;20.30;34.60;;;;;;5039592;28;20025;-85
2021/04/28 12:40:47;;;;;;;17.35;8.80;;;20.30;33.80;;;;;;5015371;28;20241;-86
2021/04/28 12:43:29;;;;;;;16.60;9.10;;;20.30;35.90;;;;;;5014661;28;20097;-85
2021/04/28 12:46:02;;;;;;;17.02;8.38;;;20.40;35.40;;;;;;5012800;28;20042;-87
2021/04/28 12:48:27;;;;;;;16.13;8.35;;;20.50;35.60;;;;;;5035133;28;20049;-86